createdAt,value
2024-01-29T00:00:51.629Z,100394.15
2024-01-29T00:01:51.545Z,100393.97
2024-01-29T00:02:51.507Z,100392.22
2024-01-29T00:03:51.559Z,100395.27
2024-01-29T00:04:51.637Z,100397.34
2024-01-29T00:05:51.583Z,100395.59
2024-01-29T00:06:51.645Z,100394.51
2024-01-29T00:07:51.575Z,100398.41
2024-01-29T00:08:51.594Z,100380.45
2024-01-29T00:09:51.596Z,100372.89
2024-01-29T00:10:51.749Z,100372.03
2024-01-29T00:11:51.745Z,100377.3
2024-01-29T00:12:51.709Z,100370.58
2024-01-29T00:13:51.649Z,100370.98
2024-01-29T00:14:51.651Z,100368.84
2024-01-29T00:15:51.761Z,100375.09
2024-01-29T00:16:51.693Z,100367.2
2024-01-29T00:17:51.715Z,100366.7
2024-01-29T00:18:51.786Z,100375.59
2024-01-29T00:19:51.951Z,100375.05
2024-01-29T00:20:52.073Z,100378.52
2024-01-29T00:21:51.832Z,100374.69
2024-01-29T00:22:51.880Z,100381.92
2024-01-29T00:23:51.833Z,100382.59
2024-01-29T00:24:51.861Z,100380.08
2024-01-29T00:25:51.884Z,100380.8
2024-01-29T00:26:51.900Z,100386.23
2024-01-29T00:27:51.920Z,100388.09
2024-01-29T00:28:51.998Z,100392.09
2024-01-29T00:29:51.896Z,100388.92
2024-01-29T00:30:51.973Z,100380.14
2024-01-29T00:31:51.978Z,100387.91
2024-01-29T00:32:52.031Z,100385.84
2024-01-29T00:33:52.718Z,100379.13
2024-01-29T00:34:51.998Z,100382.55
2024-01-29T00:35:52.025Z,100376.1
2024-01-29T00:36:52.112Z,100366.06
2024-01-29T00:37:52.016Z,100383.72
2024-01-29T00:38:52.065Z,100386.75
2024-01-29T00:39:52.212Z,100381.23
2024-01-29T00:40:52.103Z,100381.34
2024-01-29T00:41:52.059Z,100391.66
2024-01-29T00:42:52.192Z,100392.94
2024-01-29T00:43:52.162Z,100393.58
2024-01-29T00:44:52.185Z,100389.52
2024-01-29T00:45:52.269Z,100391.38
2024-01-29T00:46:52.199Z,100395.39
2024-01-29T00:47:52.180Z,100397.91
2024-01-29T00:48:52.401Z,100403.83
2024-01-29T00:49:52.371Z,100403.89
2024-01-29T00:50:52.475Z,100407.69
2024-01-29T00:51:52.247Z,100404.94
2024-01-29T00:52:52.276Z,100396.44
2024-01-29T00:53:52.315Z,100395.95
2024-01-29T00:54:52.343Z,100399.27
2024-01-29T00:55:52.306Z,100402.55
2024-01-29T00:56:52.624Z,100401.06
2024-01-29T00:57:52.348Z,100385.77
2024-01-29T00:58:52.439Z,100389.59
2024-01-29T00:59:52.381Z,100392.41
2024-01-29T01:00:52.630Z,100394.02
2024-01-29T01:01:52.433Z,100402.78
2024-01-29T01:02:52.461Z,100401.56
2024-01-29T01:03:52.584Z,100395.48
2024-01-29T01:04:52.617Z,100398.66
2024-01-29T01:05:52.502Z,100399
2024-01-29T01:06:52.524Z,100404.23
2024-01-29T01:07:52.495Z,100394.57
2024-01-29T01:08:52.523Z,100398.27
2024-01-29T01:09:52.650Z,100398.99
2024-01-29T01:10:52.746Z,100395.38
2024-01-29T01:11:52.510Z,100392.79
2024-01-29T01:12:52.731Z,100381.1
2024-01-29T01:13:52.738Z,100381.45
2024-01-29T01:14:52.690Z,100394
2024-01-29T01:15:52.739Z,100394.24
2024-01-29T01:16:52.711Z,100392.03
2024-01-29T01:17:52.744Z,100385.93
2024-01-29T01:18:52.844Z,100384.45
2024-01-29T01:19:52.936Z,100383.94
2024-01-29T01:20:52.740Z,100382.87
2024-01-29T01:21:52.799Z,100378.72
2024-01-29T01:22:52.790Z,100375.2
2024-01-29T01:23:52.762Z,100375.54
2024-01-29T01:24:52.895Z,100364.52
2024-01-29T01:25:52.842Z,100358.91
2024-01-29T01:26:52.755Z,100360.58
2024-01-29T01:27:52.783Z,100362.38
2024-01-29T01:28:52.871Z,100364.74
2024-01-29T01:29:52.840Z,100354.33
2024-01-29T01:30:52.951Z,100362.13
2024-01-29T01:31:52.884Z,100359.56
2024-01-29T01:32:52.950Z,100353.91
2024-01-29T01:33:53.001Z,100353.81
2024-01-29T01:34:53.146Z,100356.23
2024-01-29T01:35:52.982Z,100351.3
2024-01-29T01:36:53.028Z,100341.53
2024-01-29T01:37:52.964Z,100334.38
2024-01-29T01:38:53.001Z,100338.39
2024-01-29T01:39:53.121Z,100336.34
2024-01-29T01:40:53.040Z,100336.73
2024-01-29T01:41:53.107Z,100330.18
2024-01-29T01:42:53.065Z,100346.39
2024-01-29T01:43:53.072Z,100340.72
2024-01-29T01:44:53.226Z,100338.01
2024-01-29T01:46:57.114Z,100343.25
2024-01-29T01:47:56.954Z,100338.88
2024-01-29T01:48:57.365Z,100347.46
2024-01-29T01:49:57.062Z,100334.48
2024-01-29T01:50:56.971Z,100348.7
2024-01-29T01:51:57.146Z,100349.93
2024-01-29T01:52:56.971Z,100342.58
2024-01-29T01:53:58.445Z,100339.93
2024-01-29T01:54:57.178Z,100343.91
2024-01-29T01:55:57.401Z,100342.98
2024-01-29T01:56:57.977Z,100339.86
2024-01-29T01:57:58.101Z,100337.63
2024-01-29T01:58:59.617Z,100331.81
2024-01-29T01:59:57.215Z,100333.29
2024-01-29T02:00:57.243Z,100336.59
2024-01-29T02:01:57.286Z,100337.42
2024-01-29T02:02:57.145Z,100323.53
2024-01-29T02:03:57.616Z,100340.56
2024-01-29T02:04:57.555Z,100332.1
2024-01-29T02:05:57.548Z,100324.32
2024-01-29T02:06:57.858Z,100320.97
2024-01-29T02:07:57.456Z,100317.8
2024-01-29T02:08:57.253Z,100319.89
2024-01-29T02:09:57.399Z,100317.91
2024-01-29T02:10:58.420Z,100313.36
2024-01-29T02:11:57.267Z,100320.8
2024-01-29T02:12:57.368Z,100321.67
2024-01-29T02:13:57.318Z,100320.88
2024-01-29T02:14:57.337Z,100318.12
2024-01-29T02:15:57.672Z,100311.48
2024-01-29T02:16:57.460Z,100318.44
2024-01-29T02:17:57.468Z,100323.12
2024-01-29T02:18:58.057Z,100322.19
2024-01-29T02:19:57.967Z,100320.7
2024-01-29T02:20:57.990Z,100325.47
2024-01-29T02:21:58.002Z,100326.62
2024-01-29T02:22:57.961Z,100322.25
2024-01-29T02:23:57.977Z,100323.14
2024-01-29T02:24:58.024Z,100325.16
2024-01-29T02:25:57.976Z,100326.08
2024-01-29T02:26:57.977Z,100319.77
2024-01-29T02:27:58.131Z,100325.25
2024-01-29T02:28:58.070Z,100329.82
2024-01-29T02:29:58.061Z,100336.46
2024-01-29T02:30:58.084Z,100335.59
2024-01-29T02:31:58.056Z,100330.98
2024-01-29T02:32:58.204Z,100330.09
2024-01-29T02:33:58.326Z,100330.66
2024-01-29T02:34:58.217Z,100323.24
2024-01-29T02:35:58.144Z,100330.7
2024-01-29T02:36:58.225Z,100337.2
2024-01-29T02:37:58.163Z,100333.03
2024-01-29T02:38:58.201Z,100339.38
2024-01-29T02:39:58.249Z,100339.36
2024-01-29T02:40:58.217Z,100338.58
2024-01-29T02:41:58.239Z,100344.73
2024-01-29T02:42:58.297Z,100346.59
2024-01-29T02:43:58.296Z,100344.26
2024-01-29T02:44:58.363Z,100348.83
2024-01-29T02:45:58.335Z,100355.45
2024-01-29T02:46:58.311Z,100347.04
2024-01-29T02:47:58.361Z,100353.22
2024-01-29T02:48:58.629Z,100352.12
2024-01-29T02:49:58.455Z,100350.89
2024-01-29T02:50:58.380Z,100342.24
2024-01-29T02:51:58.437Z,100346
2024-01-29T02:53:01.203Z,100350.86
2024-01-29T02:53:58.424Z,100341.89
2024-01-29T02:54:58.565Z,100347.65
2024-01-29T02:55:58.466Z,100346.33
2024-01-29T02:56:58.492Z,100345.5
2024-01-29T02:57:58.528Z,100344.27
2024-01-29T02:58:58.496Z,100343.45
2024-01-29T02:59:58.574Z,100356.91
2024-01-29T03:00:58.640Z,100352.12
2024-01-29T03:01:59.380Z,100343.14
2024-01-29T03:02:58.594Z,100342.59
2024-01-29T03:03:58.667Z,100343.92
2024-01-29T03:04:58.673Z,100352.24
2024-01-29T03:05:58.712Z,100343.14
2024-01-29T03:06:59.176Z,100330.42
2024-01-29T03:07:58.674Z,100330.84
2024-01-29T03:08:58.671Z,100333
2024-01-29T03:09:58.845Z,100326.41
2024-01-29T03:10:58.776Z,100323.82
2024-01-29T03:11:58.716Z,100320.5
2024-01-29T03:12:58.886Z,100319.61
2024-01-29T03:13:58.781Z,100323.29
2024-01-29T03:15:01.478Z,100325.53
2024-01-29T03:15:59.641Z,100324.72
2024-01-29T03:16:59.632Z,100321.16
2024-01-29T03:17:59.669Z,100313.38
2024-01-29T03:18:59.681Z,100321.18
2024-01-29T03:19:59.876Z,100321.78
2024-01-29T03:20:59.629Z,100318.66
2024-01-29T03:21:59.815Z,100310.2
2024-01-29T03:22:59.672Z,100307.18
2024-01-29T03:23:59.712Z,100310.44
2024-01-29T03:24:59.803Z,100305.27
2024-01-29T03:25:59.730Z,100307.61
2024-01-29T03:26:59.760Z,100298.66
2024-01-29T03:27:59.810Z,100299.67
2024-01-29T03:28:59.768Z,100300.33
2024-01-29T03:29:59.772Z,100302.12
2024-01-29T03:30:59.931Z,100294.27
2024-01-29T03:31:59.833Z,100293.58
2024-01-29T03:33:00.091Z,100297.32
2024-01-29T03:33:59.997Z,100292.23
2024-01-29T03:34:59.840Z,100296.95
2024-01-29T03:36:03.430Z,100290.55
2024-01-29T03:36:59.965Z,100293.12
2024-01-29T03:37:59.885Z,100293.57
2024-01-29T03:38:59.896Z,100296.38
2024-01-29T03:39:59.954Z,100287.09
2024-01-29T03:41:00.380Z,100288.91
2024-01-29T03:41:59.934Z,100295.03
2024-01-29T03:43:00.072Z,100298.95
2024-01-29T03:43:59.949Z,100292.02
2024-01-29T03:44:59.966Z,100288.23
2024-01-29T03:46:00.050Z,100284.98
2024-01-29T03:47:00.056Z,100288.38
2024-01-29T03:48:00.087Z,100288.12
2024-01-29T03:49:00.354Z,100286.31
2024-01-29T03:50:00.056Z,100285.69
2024-01-29T03:51:00.136Z,100279.97
2024-01-29T03:52:00.163Z,100281.97
2024-01-29T03:53:00.064Z,100275.14
2024-01-29T03:54:00.146Z,100279.22
2024-01-29T03:55:00.428Z,100283.3
2024-01-29T03:56:00.179Z,100285.06
2024-01-29T03:57:00.192Z,100290.98
2024-01-29T03:58:00.277Z,100289.22
2024-01-29T03:59:00.292Z,100294.42
2024-01-29T04:00:00.314Z,100300.7
2024-01-29T04:01:00.365Z,100300.37
2024-01-29T04:02:00.249Z,100287.7
2024-01-29T04:03:00.455Z,100298.17
2024-01-29T04:04:00.446Z,100298.27
2024-01-29T04:05:00.491Z,100302.56
2024-01-29T04:06:00.377Z,100297.33
2024-01-29T04:07:00.383Z,100295.12
2024-01-29T04:08:00.514Z,100291.16
2024-01-29T04:09:00.281Z,100293.83
2024-01-29T04:10:00.455Z,100291.81
2024-01-29T04:11:00.316Z,100297.81
2024-01-29T04:12:00.330Z,100291.47
2024-01-29T04:13:00.499Z,100290.43
2024-01-29T04:14:00.396Z,100294.27
2024-01-29T04:15:00.585Z,100289.78
2024-01-29T04:16:00.539Z,100299.44
2024-01-29T04:17:00.417Z,100300.34
2024-01-29T04:18:00.593Z,100297.95
2024-01-29T04:19:00.567Z,100303.88
2024-01-29T04:20:00.500Z,100304.47
2024-01-29T04:21:00.457Z,100296.08
2024-01-29T04:22:00.623Z,100290.02
2024-01-29T04:23:00.490Z,100293.16
2024-01-29T04:24:00.584Z,100289.53
2024-01-29T04:25:01.872Z,100295.06
2024-01-29T04:26:00.532Z,100298.23
2024-01-29T04:27:00.583Z,100298.94
2024-01-29T04:28:00.632Z,100293.67
2024-01-29T04:29:00.569Z,100300.06
2024-01-29T04:30:00.622Z,100294.03
2024-01-29T04:31:05.886Z,100291.09
2024-01-29T04:32:04.616Z,100282.41
2024-01-29T04:33:04.516Z,100278.66
2024-01-29T04:34:04.957Z,100273.24
2024-01-29T04:35:05.478Z,100270.62
2024-01-29T04:36:04.666Z,100266.72
2024-01-29T04:37:04.514Z,100263.03
2024-01-29T04:38:04.406Z,100270.67
2024-01-29T04:39:04.272Z,100273.09
2024-01-29T04:40:04.659Z,100268.02
2024-01-29T04:41:04.301Z,100272.67
2024-01-29T04:42:04.433Z,100267.14
2024-01-29T04:43:04.360Z,100262.84
2024-01-29T04:44:04.413Z,100257.28
2024-01-29T04:45:04.796Z,100265.61
2024-01-29T04:46:04.469Z,100257.59
2024-01-29T04:47:04.700Z,100258.78
2024-01-29T04:48:04.782Z,100261.33
2024-01-29T04:49:04.515Z,100261.7
2024-01-29T04:50:04.869Z,100254.3
2024-01-29T04:51:07.641Z,100257.5
2024-01-29T04:52:04.579Z,100257.81
2024-01-29T04:53:04.511Z,100253.16
2024-01-29T04:54:04.548Z,100259.69
2024-01-29T04:55:06.070Z,100266.12
2024-01-29T04:56:05.221Z,100261.45
2024-01-29T04:57:04.804Z,100260.48
2024-01-29T04:58:04.650Z,100255.83
2024-01-29T04:59:04.521Z,100247.2
2024-01-29T05:00:05.150Z,100251.47
2024-01-29T05:01:04.730Z,100251.45
2024-01-29T05:02:04.837Z,100242.38
2024-01-29T05:03:04.863Z,100245.12
2024-01-29T05:04:04.907Z,100251.55
2024-01-29T05:05:05.001Z,100249.2
2024-01-29T05:06:05.056Z,100245.95
2024-01-29T05:07:04.630Z,100244.89
2024-01-29T05:08:05.079Z,100251.05
2024-01-29T05:09:04.664Z,100250.22
2024-01-29T05:10:05.178Z,100244.59
2024-01-29T05:11:04.912Z,100249.77
2024-01-29T05:12:05.021Z,100246.62
2024-01-29T05:13:04.737Z,100252.58
2024-01-29T05:14:04.784Z,100256.98
2024-01-29T05:15:05.262Z,100261.05
2024-01-29T05:16:07.385Z,100264.49
2024-01-29T05:17:04.767Z,100258.47
2024-01-29T05:18:04.966Z,100262.09
2024-01-29T05:19:04.861Z,100259.53
2024-01-29T05:20:05.410Z,100254.04
2024-01-29T05:21:05.193Z,100247.59
2024-01-29T05:22:05.134Z,100246.36
2024-01-29T05:23:04.932Z,100247.73
2024-01-29T05:24:05.424Z,100240.45
2024-01-29T05:25:05.108Z,100228.78
2024-01-29T05:26:04.913Z,100243.14
2024-01-29T05:27:05.187Z,100240.62
2024-01-29T05:28:05.491Z,100235.3
2024-01-29T05:29:04.953Z,100239.66
2024-01-29T05:30:05.473Z,100237.92
2024-01-29T05:31:05.084Z,100236.67
2024-01-29T05:32:05.337Z,100239.34
2024-01-29T05:33:24.409Z,100238.83
2024-01-29T05:34:06.491Z,100233.53
2024-01-29T05:35:06.917Z,100240.98
2024-01-29T05:36:06.535Z,100239.2
2024-01-29T05:37:06.447Z,100245.38
2024-01-29T05:38:06.323Z,100244.36
2024-01-29T05:39:06.341Z,100248.06
2024-01-29T05:40:06.960Z,100244.88
2024-01-29T05:41:06.385Z,100246.95
2024-01-29T05:42:06.617Z,100245.26
2024-01-29T05:43:06.427Z,100242.59
2024-01-29T05:44:06.477Z,100237
2024-01-29T05:45:07.186Z,100230.89
2024-01-29T05:46:06.580Z,100229.49
2024-01-29T05:47:06.474Z,100224.3
2024-01-29T05:48:06.777Z,100224.48
2024-01-29T05:49:06.809Z,100224.42
2024-01-29T05:50:07.239Z,100218.81
2024-01-29T05:51:06.513Z,100220.98
2024-01-29T05:52:06.570Z,100215.56
2024-01-29T05:53:06.665Z,100219.05
2024-01-29T05:54:06.567Z,100225.08
2024-01-29T05:55:07.158Z,100225.63
2024-01-29T05:56:06.839Z,100229.55
2024-01-29T05:57:10.373Z,100226.12
2024-01-29T05:58:06.864Z,100226.33
2024-01-29T05:59:06.637Z,100222.91
2024-01-29T06:00:07.637Z,100226.45
2024-01-29T06:01:06.731Z,100220.68
2024-01-29T06:02:06.788Z,100224.17
2024-01-29T06:03:06.800Z,100228.89
2024-01-29T06:04:06.759Z,100226.83
2024-01-29T06:05:07.172Z,100226.33
2024-01-29T06:06:06.821Z,100231.5
2024-01-29T06:07:06.858Z,100237.44
2024-01-29T06:08:06.995Z,100234.14
2024-01-29T06:09:06.765Z,100235.14
2024-01-29T06:10:08.426Z,100245.48
2024-01-29T06:11:06.803Z,100238.98
2024-01-29T06:12:07.135Z,100236.67
2024-01-29T06:13:06.900Z,100232.06
2024-01-29T06:14:06.813Z,100230.05
2024-01-29T06:15:07.287Z,100229.92
2024-01-29T06:16:07.202Z,100232.12
2024-01-29T06:17:06.890Z,100228.81
2024-01-29T06:18:06.943Z,100226.91
2024-01-29T06:19:07.024Z,100224.53
2024-01-29T06:20:16.377Z,100220.83
2024-01-29T06:21:09.849Z,100225.11
2024-01-29T06:22:09.916Z,100229.23
2024-01-29T06:23:10.298Z,100226.8
2024-01-29T06:24:10.053Z,100229.84
2024-01-29T06:25:09.966Z,100223.86
2024-01-29T06:26:10.624Z,100219.72
2024-01-29T06:27:10.038Z,100215.32
2024-01-29T06:28:10.040Z,100211.3
2024-01-29T06:29:09.965Z,100209.2
2024-01-29T06:30:11.012Z,100213.03
2024-01-29T06:31:09.986Z,100202.48
2024-01-29T06:32:09.985Z,100200.34
2024-01-29T06:33:10.127Z,100204.08
2024-01-29T06:34:10.355Z,100197.89
2024-01-29T06:35:11.279Z,100198.3
2024-01-29T06:36:15.507Z,100201.81
2024-01-29T06:37:11.730Z,100198.25
2024-01-29T06:38:11.713Z,100194.39
2024-01-29T06:39:11.751Z,100194.81
2024-01-29T06:40:12.120Z,100198.24
2024-01-29T06:42:15.711Z,100202.8
2024-01-29T06:43:15.629Z,100201.23
2024-01-29T06:44:15.647Z,100201.73
2024-01-29T06:45:15.713Z,100202.28
2024-01-29T06:46:15.686Z,100204.92
2024-01-29T06:47:15.710Z,100208.14
2024-01-29T06:48:15.936Z,100203.96
2024-01-29T06:50:16.737Z,100204.66
2024-01-29T06:51:16.761Z,100202.22
2024-01-29T06:52:18.588Z,100207.37
2024-01-29T06:53:16.798Z,100196.97
2024-01-29T06:54:16.841Z,100207.95
2024-01-29T06:55:16.813Z,100203.8
2024-01-29T06:56:16.840Z,100210.16
2024-01-29T06:57:16.867Z,100209.94
2024-01-29T06:58:16.990Z,100217.75
2024-01-29T06:59:16.847Z,100210.85
2024-01-29T07:00:17.294Z,100203.93
2024-01-29T07:01:20.552Z,100208.53
2024-01-29T07:02:16.954Z,100202.86
2024-01-29T07:03:16.965Z,100204.45
2024-01-29T07:04:17.017Z,100213.61
2024-01-29T07:05:16.926Z,100204.63
2024-01-29T07:06:17.008Z,100209.45
2024-01-29T07:07:17.016Z,100206.84
2024-01-29T07:08:17.368Z,100208.73
2024-01-29T07:09:16.971Z,100213.55
2024-01-29T07:10:17.109Z,100214.06
2024-01-29T07:11:17.135Z,100207.83
2024-01-29T07:12:17.004Z,100211.98
2024-01-29T07:13:17.110Z,100210.83
2024-01-29T07:14:17.082Z,100213.71
2024-01-29T07:15:17.310Z,100213.3
2024-01-29T07:16:17.133Z,100219.87
2024-01-29T07:17:17.104Z,100222.64
2024-01-29T07:18:17.591Z,100224.13
2024-01-29T07:19:17.896Z,100229.44
2024-01-29T07:20:17.273Z,100225.75
2024-01-29T07:21:17.157Z,100231.76
2024-01-29T07:22:17.203Z,100226.61
2024-01-29T07:23:17.168Z,100225.5
2024-01-29T07:24:17.291Z,100225.22
2024-01-29T07:25:17.278Z,100226.63
2024-01-29T07:26:17.220Z,100224.57
2024-01-29T07:27:17.570Z,100224.28
2024-01-29T07:28:17.299Z,100224.17
2024-01-29T07:29:17.259Z,100222.2
2024-01-29T07:30:17.439Z,100219.7
2024-01-29T07:31:17.385Z,100215.92
2024-01-29T07:32:17.393Z,100215.65
2024-01-29T07:33:17.407Z,100212.89
2024-01-29T07:34:17.518Z,100211.65
2024-01-29T07:35:17.402Z,100213.03
2024-01-29T07:36:17.358Z,100213.14
2024-01-29T07:37:17.415Z,100213.2
2024-01-29T07:38:17.404Z,100215.52
2024-01-29T07:39:17.446Z,100210.59
2024-01-29T07:40:18.356Z,100207.41
2024-01-29T07:41:17.478Z,100207.45
2024-01-29T07:42:17.475Z,100199.61
2024-01-29T07:43:17.539Z,100201.76
2024-01-29T07:44:18.231Z,100205.08
2024-01-29T07:45:17.554Z,100203.88
2024-01-29T07:46:17.628Z,100204.02
2024-01-29T07:47:20.053Z,100200.73
2024-01-29T07:48:17.640Z,100201
2024-01-29T07:49:17.889Z,100201.51
2024-01-29T07:50:17.755Z,100200.89
2024-01-29T07:51:17.606Z,100204.38
2024-01-29T07:52:17.736Z,100200.87
2024-01-29T07:53:17.668Z,100202.09
2024-01-29T07:54:17.684Z,100195.64
2024-01-29T07:55:20.192Z,100196.67
2024-01-29T07:56:19.641Z,100205.33
2024-01-29T07:57:19.559Z,100198.62
2024-01-29T07:58:22.445Z,100198.58
2024-01-29T07:59:19.550Z,100199.88
2024-01-29T08:00:19.901Z,100198.09
2024-01-29T08:01:19.688Z,100200.77
2024-01-29T08:02:19.695Z,100198.15
2024-01-29T08:03:19.611Z,100198.14
2024-01-29T08:04:19.735Z,100196.19
2024-01-29T08:05:19.688Z,100196.83
2024-01-29T08:06:19.798Z,100193.21
2024-01-29T08:07:19.808Z,100196.11
2024-01-29T08:08:19.706Z,100190.96
2024-01-29T08:09:19.804Z,100196.2
2024-01-29T08:10:20.092Z,100190.66
2024-01-29T08:11:19.744Z,100188.97
2024-01-29T08:12:19.781Z,100182.32
2024-01-29T08:13:19.862Z,100188.39
2024-01-29T08:14:19.943Z,100181.23
2024-01-29T08:15:19.985Z,100189.84
2024-01-29T08:16:19.949Z,100185.64
2024-01-29T08:17:19.918Z,100178.92
2024-01-29T08:18:20.418Z,100180.98
2024-01-29T08:19:21.227Z,100185.91
2024-01-29T08:20:20.274Z,100186.48
2024-01-29T08:21:19.899Z,100184.83
2024-01-29T08:22:21.830Z,100181.53
2024-01-29T08:23:22.153Z,100183.42
2024-01-29T08:24:21.901Z,100173.73
2024-01-29T08:25:21.911Z,100171.94
2024-01-29T08:26:21.845Z,100171.7
2024-01-29T08:27:22.000Z,100173.09
2024-01-29T08:28:22.193Z,100177.12
2024-01-29T08:29:21.954Z,100170.3
2024-01-29T08:30:21.909Z,100174.72
2024-01-29T08:31:22.356Z,100172.58
2024-01-29T08:32:21.989Z,100176.81
2024-01-29T08:33:22.104Z,100178.55
2024-01-29T08:34:22.156Z,100170.45
2024-01-29T08:35:22.053Z,100176.7
2024-01-29T08:36:22.038Z,100178.22
2024-01-29T08:37:22.507Z,100176.87
2024-01-29T08:38:22.152Z,100179.66
2024-01-29T08:39:22.083Z,100180.81
2024-01-29T08:40:22.206Z,100176.68
2024-01-29T08:41:22.178Z,100174.44
2024-01-29T08:42:22.136Z,100175.2
2024-01-29T08:43:22.189Z,100185.46
2024-01-29T08:44:22.242Z,100189.39
2024-01-29T08:45:22.332Z,100193.81
2024-01-29T08:46:22.203Z,100196.44
2024-01-29T08:47:22.388Z,100218.11
2024-01-29T08:48:22.362Z,100222.62
2024-01-29T08:49:22.669Z,100218.52
2024-01-29T08:50:22.236Z,100226.16
2024-01-29T08:51:22.350Z,100221.14
2024-01-29T08:52:22.263Z,100229.04
2024-01-29T08:53:22.350Z,100223.55
2024-01-29T08:54:22.382Z,100223.09
2024-01-29T08:55:22.848Z,100218.25
2024-01-29T08:56:22.478Z,100209.62
2024-01-29T08:57:22.381Z,100208.41
2024-01-29T08:58:24.495Z,100203.69
2024-01-29T08:59:22.778Z,100202.6
2024-01-29T09:00:22.649Z,100202.17
2024-01-29T09:01:22.856Z,100197.65
2024-01-29T09:02:22.700Z,100208.59
2024-01-29T09:03:22.816Z,100209.34
2024-01-29T09:04:22.942Z,100214.73
2024-01-29T09:05:22.899Z,100219.74
2024-01-29T09:06:22.721Z,100224.17
2024-01-29T09:07:22.816Z,100218.23
2024-01-29T09:08:22.788Z,100203.28
2024-01-29T09:09:22.847Z,100206.73
2024-01-29T09:10:23.473Z,100204.58
2024-01-29T09:11:22.846Z,100197.8
2024-01-29T09:12:22.826Z,100195.12
2024-01-29T09:13:22.914Z,100197.81
2024-01-29T09:14:22.870Z,100194.34
2024-01-29T09:15:23.154Z,100183.03
2024-01-29T09:16:22.883Z,100193.48
2024-01-29T09:17:22.913Z,100186.16
2024-01-29T09:18:22.991Z,100219.02
2024-01-29T09:19:23.099Z,100218.12
2024-01-29T09:20:23.056Z,100214.66
2024-01-29T09:21:23.041Z,100216.98
2024-01-29T09:22:23.052Z,100214.66
2024-01-29T09:23:22.997Z,100218.66
2024-01-29T09:24:23.081Z,100218.97
2024-01-29T09:25:23.116Z,100220.11
2024-01-29T09:26:23.087Z,100213.77
2024-01-29T09:27:23.083Z,100219.33
2024-01-29T09:28:23.098Z,100211.66
2024-01-29T09:29:23.131Z,100213.05
2024-01-29T09:30:23.177Z,100202.61
2024-01-29T09:31:23.528Z,100202.99
2024-01-29T09:32:23.156Z,100198.14
2024-01-29T09:33:23.365Z,100197.86
2024-01-29T09:34:23.346Z,100195.56
2024-01-29T09:35:23.603Z,100188.23
2024-01-29T09:36:23.223Z,100198.77
2024-01-29T09:37:23.237Z,100199.73
2024-01-29T09:38:23.285Z,100201.73
2024-01-29T09:39:26.192Z,100193.83
2024-01-29T09:40:23.389Z,100192.91
2024-01-29T09:41:23.344Z,100199.69
2024-01-29T09:42:24.442Z,100197.48
2024-01-29T09:43:23.633Z,100193
2024-01-29T09:44:23.351Z,100202.44
2024-01-29T09:45:23.560Z,100212.5
2024-01-29T09:46:23.846Z,100214.57
2024-01-29T09:47:24.366Z,100214.3
2024-01-29T09:48:23.723Z,100210.95
2024-01-29T09:49:23.781Z,100207.28
2024-01-29T09:50:25.986Z,100203.41
2024-01-29T09:51:23.512Z,100213.73
2024-01-29T09:52:24.035Z,100213.89
2024-01-29T09:53:24.010Z,100208.83
2024-01-29T09:54:23.475Z,100211.25
2024-01-29T09:55:24.761Z,100222.48
2024-01-29T09:56:23.825Z,100220.2
2024-01-29T09:57:23.572Z,100222.11
2024-01-29T09:58:23.527Z,100223.88
2024-01-29T09:59:23.747Z,100228.45
2024-01-29T10:00:23.571Z,100227.45
2024-01-29T10:01:23.986Z,100217.33
2024-01-29T10:02:25.498Z,100228.07
2024-01-29T10:03:26.992Z,100224.7
2024-01-29T10:04:23.892Z,100225.48
2024-01-29T10:05:27.499Z,100229.76
2024-01-29T10:06:24.205Z,100227.58
2024-01-29T10:07:24.420Z,100233.04
2024-01-29T10:08:24.643Z,100223.05
2024-01-29T10:09:24.269Z,100224.91
2024-01-29T10:10:25.666Z,100225.72
2024-01-29T10:11:24.633Z,100228.28
2024-01-29T10:12:24.720Z,100223.67
2024-01-29T10:13:24.361Z,100227.61
2024-01-29T10:14:24.328Z,100221.31
2024-01-29T10:15:24.313Z,100214.08
2024-01-29T10:16:24.324Z,100213.91
2024-01-29T10:17:24.678Z,100222.45
2024-01-29T10:18:26.426Z,100211.84
2024-01-29T10:19:24.690Z,100211.06
2024-01-29T10:20:24.517Z,100209.44
2024-01-29T10:21:24.485Z,100207.5
2024-01-29T10:22:24.441Z,100218.89
2024-01-29T10:23:24.452Z,100220.7
2024-01-29T10:24:24.494Z,100225.74
2024-01-29T10:25:24.739Z,100229.87
2024-01-29T10:26:25.448Z,100238.33
2024-01-29T10:27:25.164Z,100229.97
2024-01-29T10:28:25.315Z,100228.77
2024-01-29T10:29:25.159Z,100227.62
2024-01-29T10:30:25.194Z,100222.78
2024-01-29T10:31:25.218Z,100227.03
2024-01-29T10:32:25.666Z,100240.74
2024-01-29T10:33:25.821Z,100239.3
2024-01-29T10:34:25.871Z,100236.97
2024-01-29T10:35:25.409Z,100237.12
2024-01-29T10:36:25.436Z,100225.83
2024-01-29T10:37:29.112Z,100230.91
2024-01-29T10:38:27.173Z,100222.08
2024-01-29T10:39:28.285Z,100222.42
2024-01-29T10:40:25.964Z,100220.77
2024-01-29T10:41:26.498Z,100228.74
2024-01-29T10:42:29.877Z,100229.03
2024-01-29T10:43:38.072Z,100221.19
2024-01-29T10:44:33.187Z,100221.69
2024-01-29T10:45:33.832Z,100227.86
2024-01-29T10:46:34.397Z,100226.05
2024-01-29T10:47:33.444Z,100232.44
2024-01-29T10:48:32.264Z,100231.01
2024-01-29T10:49:32.214Z,100229.56
2024-01-29T10:50:31.386Z,100224.45
2024-01-29T10:51:31.946Z,100222
2024-01-29T10:52:31.497Z,100219.1
2024-01-29T10:53:31.709Z,100213.42
2024-01-29T10:54:32.933Z,100219.02
2024-01-29T10:55:31.363Z,100223.17
2024-01-29T10:56:31.300Z,100226.52
2024-01-29T10:57:32.661Z,100226.34
2024-01-29T10:58:31.799Z,100233.72
2024-01-29T10:59:31.407Z,100235.31
2024-01-29T11:00:31.589Z,100236.24
2024-01-29T11:01:34.328Z,100235.48
2024-01-29T11:02:31.505Z,100230.55
2024-01-29T11:03:31.375Z,100234.89
2024-01-29T11:04:33.880Z,100234.61
2024-01-29T11:05:32.628Z,100233.52
2024-01-29T11:06:45.871Z,100236.89
2024-01-29T11:07:38.432Z,100233.86
2024-01-29T11:08:39.257Z,100231.19
2024-01-29T11:09:39.160Z,100221.48
2024-01-29T11:10:37.766Z,100215.55
2024-01-29T11:11:38.373Z,100212.76
2024-01-29T11:12:39.217Z,100211.8
2024-01-29T11:13:38.153Z,100209.03
2024-01-29T11:14:37.905Z,100214.88
2024-01-29T11:15:37.783Z,100212.16
2024-01-29T11:16:38.069Z,100212.88
2024-01-29T11:17:39.750Z,100212.7
2024-01-29T11:18:37.944Z,100207.05
2024-01-29T11:19:38.000Z,100211.86
2024-01-29T11:20:37.834Z,100209.99
2024-01-29T11:21:49.887Z,100212.33
2024-01-29T11:22:50.942Z,100217.16
2024-01-29T11:23:45.425Z,100214.12
2024-01-29T11:24:43.387Z,100219.91
2024-01-29T11:25:42.662Z,100221.91
2024-01-29T11:26:42.728Z,100225.57
2024-01-29T11:27:47.166Z,100225.76
2024-01-29T11:28:44.361Z,100232.03
2024-01-29T11:29:44.833Z,100231.55
2024-01-29T11:30:50.309Z,100239.79